Terminal Aerodrome Forecast
Issued by NWS

Home | Current Version | Previous Version | Text Only | Print | Product List | Glossary On
Versions: 1 2 3 4 5 6 7 8 9 10 11 12 13 14 15 16 17 18 19 20 21 22 23 24 25 26 27 28 29 30 31 32 33 34 35 36 37
000
FTUS45 KSLC 051133
TAFEVW
TAF
KEVW 051133Z 0512/0612 22015G22KT P6SM VCTS SCT070CB BKN110
     FM051800 24028G40KT P6SM SCT090 SCT200
     FM052200 27020G30KT P6SM SCT060 BKN120
     FM060300 33007KT P6SM SCT080 SCT150=

USA.gov is the U.S. government's official web portal to all federal, state and local government web resources and services.